Huvudsida
METAR-TAF:

METAR-TAF

Flygplatser :

Alger-Houari Boumédiènnes flygplats

Alger, Algeriet

latitud: 36-43N, longitud: 003-15E, höjd: 25 m

Aktuellt väderrapport

Denna rapport gjordes för 42 minuter sedan, klockan 04:00 UTC
Vind 1 kt från syd
Temperatur 18°C
Fuktighet 77%
Tryck 1019 hPa
Sikt 10 km eller mer
Inga moln under 1 500 m eller inga cumulonimbus

METAR: DAAG 230400Z 18001KT CAVOK 18/14 Q1019

Tid: 05:42 (04:42 UTC)

Väderprognos

Denna rapport gjordes för 5 timmar och 42 minuter sedan, klockan 23:00 UTC
Prognos gäller från 23 kl. 00 UTC till 23 kl. 24 UTC
Vind 2 kt varierande vindriktning
Sikt 10 km eller mer
Inga moln under 1 500 m eller inga cumulonimbus
Blir
från 23 kl. 08 UTC till 23 kl. 10 UTC
Vind 12 kt från nordost
Blir
från 23 kl. 20 UTC till 23 kl. 22 UTC
Vind 2 kt varierande vindriktning

TAF: DAAG 222300Z 2300/2324 VRB02KT CAVOK BECMG 2308/2310 04012KT BECMG 2320/2322 VRB02KT

Aktuella väderrapporter och prognoser från 4000 flygplatser (METAR- och TAF-rapporter).

De tillgängliga stationerna syns som gula och röda prickar på kartan.

För musen över prickarna för att se namnen på stationerna.

Klicka sedan för att få väderrapporter och prognoser.

För att ändra kartan: Klicka på de gröna knapparna med ett svart kors på för att zooma in; den gröna knappen med ett streck på för att zooma ut; eller på de gröna pilarna för angränsande kartor.


METAR-TAF: